createdAt,value
2018-09-04T00:00:42.752Z,20.57
2018-09-04T00:03:10.772Z,20.51
2018-09-04T00:05:38.784Z,20.41
2018-09-04T00:08:07.580Z,20.43
2018-09-04T00:10:35.586Z,20.45
2018-09-04T00:13:03.604Z,20.43
2018-09-04T00:15:31.621Z,20.28
2018-09-04T00:17:59.744Z,20.23
2018-09-04T00:20:27.761Z,20.36
2018-09-04T00:22:55.760Z,20.20
2018-09-04T00:25:23.796Z,20.31
2018-09-04T00:27:51.794Z,20.37
2018-09-04T00:30:19.816Z,20.28
2018-09-04T00:32:47.844Z,20.35
2018-09-04T00:35:15.865Z,20.31
2018-09-04T00:37:43.862Z,20.30
2018-09-04T00:40:11.909Z,20.38
2018-09-04T00:42:39.912Z,20.28
2018-09-04T00:45:07.925Z,20.26
2018-09-04T00:47:35.938Z,20.03
2018-09-04T00:50:03.994Z,20.06
2018-09-04T00:52:32.023Z,19.87
2018-09-04T00:55:00.103Z,19.92
2018-09-04T00:57:28.096Z,19.82
2018-09-04T00:59:56.085Z,19.76
2018-09-04T01:02:24.155Z,19.73
2018-09-04T01:04:52.183Z,19.63
2018-09-04T01:07:20.228Z,19.58
2018-09-04T01:09:48.238Z,19.55
2018-09-04T01:12:16.236Z,19.45
2018-09-04T01:14:44.264Z,19.36
2018-09-04T01:17:12.308Z,19.37
2018-09-04T01:19:40.372Z,19.27
2018-09-04T01:22:08.409Z,19.19
2018-09-04T01:24:36.408Z,19.11
2018-09-04T01:27:04.453Z,19.09
2018-09-04T01:29:32.440Z,19.00
2018-09-04T01:32:00.457Z,18.98
2018-09-04T01:34:28.481Z,18.95
2018-09-04T01:36:56.480Z,18.91
2018-09-04T01:39:24.473Z,18.87
2018-09-04T01:41:52.493Z,18.88
2018-09-04T01:44:20.517Z,18.81
2018-09-04T01:46:48.525Z,18.78
2018-09-04T01:49:16.554Z,18.72
2018-09-04T01:51:44.563Z,18.80
2018-09-04T01:54:12.553Z,18.81
2018-09-04T01:56:40.564Z,18.89
2018-09-04T01:59:08.561Z,18.96
2018-09-04T02:01:36.776Z,18.84
2018-09-04T02:04:04.794Z,18.76
2018-09-04T02:06:32.805Z,18.74
2018-09-04T02:09:00.801Z,18.71
2018-09-04T02:11:28.821Z,18.73
2018-09-04T02:13:56.809Z,18.71
2018-09-04T02:16:24.792Z,18.74
2018-09-04T02:18:52.951Z,18.73
2018-09-04T02:21:20.961Z,18.73
2018-09-04T02:23:48.956Z,18.60
2018-09-04T02:26:16.956Z,18.53
2018-09-04T02:28:44.973Z,18.47
2018-09-04T02:31:12.980Z,18.42
2018-09-04T02:33:41.094Z,18.46
2018-09-04T02:36:09.104Z,18.40
2018-09-04T02:38:37.221Z,18.48
2018-09-04T02:41:05.921Z,18.60
2018-09-04T02:43:33.922Z,18.55
2018-09-04T02:46:01.981Z,18.60
2018-09-04T02:48:30.052Z,18.63
2018-09-04T02:50:58.060Z,18.72
2018-09-04T02:53:26.072Z,18.80
2018-09-04T02:55:54.090Z,18.69
2018-09-04T02:58:22.096Z,18.70
2018-09-04T03:00:50.120Z,18.63
2018-09-04T03:03:18.135Z,18.56
2018-09-04T03:05:46.150Z,18.63
2018-09-04T03:08:14.174Z,18.60
2018-09-04T03:10:42.249Z,18.49
2018-09-04T03:13:10.321Z,18.43
2018-09-04T03:15:38.385Z,18.53
2018-09-04T03:18:06.416Z,18.59
2018-09-04T03:20:34.432Z,18.73
2018-09-04T03:23:02.460Z,18.76
2018-09-04T03:25:30.457Z,18.58
2018-09-04T03:27:58.489Z,18.37
2018-09-04T03:30:26.469Z,18.24
2018-09-04T03:32:54.469Z,18.11
2018-09-04T03:35:22.495Z,18.11
2018-09-04T03:37:50.522Z,18.11
2018-09-04T03:40:18.539Z,18.06
2018-09-04T03:42:46.593Z,18.07
2018-09-04T03:45:14.696Z,18.00
2018-09-04T03:47:42.747Z,18.04
2018-09-04T03:50:10.872Z,17.86
2018-09-04T03:52:38.864Z,17.89
2018-09-04T03:55:06.990Z,17.77
2018-09-04T03:57:34.977Z,17.74
2018-09-04T04:00:03.029Z,17.73
2018-09-04T04:02:31.040Z,17.79
2018-09-04T04:04:59.117Z,17.63
2018-09-04T04:07:27.209Z,17.73
2018-09-04T04:09:55.368Z,17.70
2018-09-04T04:12:23.409Z,17.65
2018-09-04T04:14:51.477Z,17.58
2018-09-04T04:17:19.515Z,17.49
2018-09-04T04:19:47.556Z,17.51
2018-09-04T04:22:15.585Z,17.60
2018-09-04T04:24:44.651Z,17.55
2018-09-04T04:27:12.661Z,17.66
2018-09-04T04:29:40.702Z,17.42
2018-09-04T04:32:08.708Z,17.41
2018-09-04T04:34:36.714Z,17.32
2018-09-04T04:37:04.779Z,17.36
2018-09-04T04:39:32.857Z,17.48
2018-09-04T04:42:00.889Z,17.58
2018-09-04T04:44:28.907Z,17.51
2018-09-04T04:49:28.429Z,17.53
2018-09-04T04:51:56.436Z,17.53
2018-09-04T04:54:24.500Z,17.49
2018-09-04T04:56:52.647Z,17.50
2018-09-04T04:59:20.673Z,17.46
2018-09-04T05:01:48.705Z,17.46
2018-09-04T05:04:16.740Z,17.40
2018-09-04T05:06:44.748Z,17.40
2018-09-04T05:09:12.836Z,17.22
2018-09-04T05:11:40.935Z,17.14
2018-09-04T05:14:08.945Z,17.11
2018-09-04T05:16:36.982Z,17.11
2018-09-04T05:19:05.157Z,17.14
2018-09-04T05:21:33.180Z,17.12
2018-09-04T05:24:01.187Z,17.06
2018-09-04T05:26:29.212Z,17.20
2018-09-04T05:28:57.212Z,17.08
2018-09-04T05:31:25.554Z,17.06
2018-09-04T05:33:53.564Z,17.08
2018-09-04T05:36:21.591Z,16.99
2018-09-04T05:38:49.593Z,16.94
2018-09-04T05:41:17.633Z,16.87
2018-09-04T05:43:50.288Z,16.93
2018-09-04T05:46:24.813Z,16.85
2018-09-04T05:48:53.381Z,17.00
2018-09-04T05:51:21.412Z,16.91
2018-09-04T05:53:49.451Z,17.01
2018-09-04T05:56:17.473Z,17.13
2018-09-04T05:58:45.460Z,17.19
2018-09-04T06:01:13.477Z,17.30
2018-09-04T06:03:41.505Z,17.32
2018-09-04T06:06:09.524Z,17.27
2018-09-04T06:08:37.524Z,17.32
2018-09-04T06:11:05.534Z,17.29
2018-09-04T06:13:33.589Z,17.31
2018-09-04T06:16:01.545Z,17.42
2018-09-04T06:18:29.548Z,17.42
2018-09-04T06:20:57.605Z,17.59
2018-09-04T06:23:25.618Z,17.56
2018-09-04T06:25:53.637Z,17.45
2018-09-04T06:28:21.662Z,17.56
2018-09-04T06:30:49.682Z,17.49
2018-09-04T06:33:17.766Z,17.52
2018-09-04T06:35:45.701Z,17.63
2018-09-04T06:38:13.721Z,17.60
2018-09-04T06:40:41.741Z,17.68
2018-09-04T06:43:09.836Z,17.62
2018-09-04T06:45:37.857Z,17.58
2018-09-04T06:48:05.871Z,17.54
2018-09-04T06:50:33.965Z,17.69
2018-09-04T06:53:02.006Z,17.85
2018-09-04T06:55:30.041Z,17.92
2018-09-04T06:57:58.159Z,17.90
2018-09-04T07:00:26.246Z,17.91
2018-09-04T07:02:54.341Z,17.94
2018-09-04T07:05:22.379Z,17.98
2018-09-04T07:07:50.410Z,17.90
2018-09-04T07:10:18.433Z,18.10
2018-09-04T07:12:46.434Z,18.31
2018-09-04T07:15:14.445Z,18.30
2018-09-04T07:17:42.522Z,18.25
2018-09-04T07:20:10.516Z,18.38
2018-09-04T07:22:38.560Z,18.46
2018-09-04T07:25:07.216Z,18.57
2018-09-04T07:27:35.218Z,18.70
2018-09-04T07:30:03.252Z,18.88
2018-09-04T07:32:31.276Z,19.04
2018-09-04T07:34:59.285Z,19.06
2018-09-04T07:37:27.341Z,19.05
2018-09-04T07:39:55.338Z,18.89
2018-09-04T07:42:23.373Z,19.02
2018-09-04T07:44:51.441Z,19.10
2018-09-04T07:47:19.453Z,19.19
2018-09-04T07:49:47.466Z,19.41
2018-09-04T07:52:15.495Z,19.52
2018-09-04T07:54:43.510Z,19.48
2018-09-04T07:57:11.678Z,19.56
2018-09-04T07:59:39.689Z,19.61
2018-09-04T08:02:07.932Z,19.92
2018-09-04T08:04:35.929Z,20.26
2018-09-04T08:07:04.180Z,20.16
2018-09-04T08:09:32.226Z,20.45
2018-09-04T08:12:00.226Z,20.75
2018-09-04T08:14:28.680Z,21.15
2018-09-04T08:17:03.432Z,21.15
2018-09-04T08:19:31.449Z,21.32
2018-09-04T08:21:59.454Z,21.43
2018-09-04T08:24:27.528Z,21.59
2018-09-04T08:26:55.546Z,21.91
2018-09-04T08:29:23.575Z,22.77
2018-09-04T08:31:51.581Z,24.06
2018-09-04T08:34:19.621Z,25.07
2018-09-04T08:36:47.629Z,24.86
2018-09-04T08:39:15.670Z,25.42
2018-09-04T08:41:43.697Z,25.78
2018-09-04T08:44:11.703Z,26.36
2018-09-04T08:46:39.697Z,27.17
2018-09-04T08:49:07.700Z,27.49
2018-09-04T08:51:35.693Z,28.13
2018-09-04T08:54:03.740Z,29.20
2018-09-04T08:56:31.752Z,29.33
2018-09-04T08:58:59.787Z,29.56
2018-09-04T09:01:27.820Z,29.73
2018-09-04T09:03:55.809Z,30.68
2018-09-04T09:06:23.809Z,30.10
2018-09-04T09:08:51.840Z,30.09
2018-09-04T09:11:19.846Z,30.00
2018-09-04T09:13:47.866Z,29.47
2018-09-04T09:16:15.873Z,28.95
2018-09-04T09:18:43.878Z,29.05
2018-09-04T09:21:11.985Z,28.96
2018-09-04T09:23:40.013Z,28.79
2018-09-04T09:26:08.026Z,29.16
2018-09-04T09:28:36.028Z,29.14
2018-09-04T09:31:04.017Z,28.44
2018-09-04T09:33:32.027Z,27.91
2018-09-04T09:36:00.106Z,27.80
2018-09-04T09:38:28.097Z,27.46
2018-09-04T09:40:56.092Z,27.39
2018-09-04T09:43:24.178Z,27.46
2018-09-04T09:45:52.189Z,27.30
2018-09-04T09:48:20.188Z,27.16
2018-09-04T09:50:48.198Z,27.56
2018-09-04T09:53:16.462Z,27.37
2018-09-04T09:55:44.228Z,27.12
2018-09-04T09:58:12.262Z,26.80
2018-09-04T10:00:45.648Z,27.04
2018-09-04T10:04:21.821Z,27.00
2018-09-04T10:06:49.872Z,27.42
2018-09-04T10:09:17.949Z,27.31
2018-09-04T10:11:45.956Z,27.50
2018-09-04T10:14:13.992Z,27.51
2018-09-04T10:16:42.028Z,27.04
2018-09-04T10:19:10.093Z,26.87
2018-09-04T10:21:38.192Z,26.91
2018-09-04T10:24:06.381Z,26.79
2018-09-04T10:26:34.653Z,27.26
2018-09-04T10:29:02.549Z,27.49
2018-09-04T10:31:30.736Z,27.44
2018-09-04T10:33:59.000Z,27.35
2018-09-04T10:36:27.206Z,26.93
2018-09-04T10:39:00.604Z,26.90
2018-09-04T10:41:28.844Z,26.72
2018-09-04T10:43:57.804Z,27.05
2018-09-04T10:46:26.460Z,27.43
2018-09-04T10:48:54.670Z,27.47
2018-09-04T10:51:22.660Z,27.18
2018-09-04T10:53:50.769Z,27.58
2018-09-04T10:56:18.790Z,27.66
2018-09-04T10:58:46.781Z,27.64
2018-09-04T11:01:14.768Z,27.92
2018-09-04T11:03:42.959Z,27.98
2018-09-04T11:06:10.976Z,27.71
2018-09-04T11:08:38.992Z,27.51
2018-09-04T11:11:07.010Z,27.58
2018-09-04T11:13:35.005Z,27.60
2018-09-04T11:16:03.025Z,27.66
2018-09-04T11:18:31.028Z,28.05
2018-09-04T11:20:59.056Z,28.22
2018-09-04T11:23:27.098Z,28.18
2018-09-04T11:25:55.097Z,27.68
2018-09-04T11:28:23.103Z,27.46
2018-09-04T11:30:51.128Z,27.55
2018-09-04T11:33:19.141Z,27.33
2018-09-04T11:35:47.148Z,27.40
2018-09-04T11:38:15.151Z,27.70
2018-09-04T11:40:43.210Z,27.35
2018-09-04T11:43:11.200Z,27.29
2018-09-04T11:45:39.228Z,27.36
2018-09-04T11:48:07.267Z,27.66
2018-09-04T11:50:35.281Z,27.98
2018-09-04T11:53:03.288Z,28.08
2018-09-04T11:55:31.350Z,28.13
2018-09-04T11:57:59.368Z,28.05
2018-09-04T12:00:34.173Z,27.98
2018-09-04T12:03:02.382Z,28.10
2018-09-04T12:05:30.659Z,28.60
2018-09-04T12:07:58.736Z,28.73
2018-09-04T12:10:26.765Z,28.66
2018-09-04T12:12:54.979Z,28.52
2018-09-04T12:15:23.021Z,28.28
2018-09-04T12:17:51.013Z,28.04
2018-09-04T12:20:28.833Z,27.96
2018-09-04T12:22:56.924Z,27.90
2018-09-04T12:25:25.646Z,27.84
2018-09-04T12:27:53.730Z,28.23
2018-09-04T12:30:21.768Z,28.31
2018-09-04T12:32:49.813Z,28.50
2018-09-04T12:35:17.841Z,28.46
2018-09-04T12:37:45.924Z,28.80
2018-09-04T12:40:13.952Z,28.75
2018-09-04T12:42:41.990Z,28.79
2018-09-04T12:45:10.060Z,28.12
2018-09-04T12:47:38.072Z,28.36
2018-09-04T12:50:06.174Z,28.57
2018-09-04T12:52:34.231Z,28.24
2018-09-04T12:55:02.227Z,27.83
2018-09-04T12:57:30.297Z,28.02
2018-09-04T12:59:58.302Z,28.00
2018-09-04T13:02:26.336Z,27.95
2018-09-04T13:04:54.404Z,28.08
2018-09-04T13:07:22.482Z,28.44
2018-09-04T13:09:50.492Z,28.76
2018-09-04T13:12:18.509Z,29.07
2018-09-04T13:14:46.531Z,29.04
2018-09-04T13:17:14.619Z,29.11
2018-09-04T13:19:42.640Z,29.30
2018-09-04T13:22:10.682Z,29.40
2018-09-04T13:24:38.691Z,29.26
2018-09-04T13:27:06.812Z,29.13
2018-09-04T13:29:34.886Z,29.28
2018-09-04T13:32:02.929Z,29.46
2018-09-04T13:34:31.094Z,29.75
2018-09-04T13:36:59.062Z,29.72
2018-09-04T13:39:27.064Z,29.79
2018-09-04T13:41:55.201Z,29.16
2018-09-04T13:44:23.230Z,29.51
2018-09-04T13:46:51.223Z,29.92
2018-09-04T13:49:19.279Z,29.69
2018-09-04T13:51:47.278Z,29.70
2018-09-04T13:54:15.316Z,28.94
2018-09-04T13:56:43.408Z,28.75
2018-09-04T13:59:11.466Z,29.09
2018-09-04T14:01:39.449Z,29.20
2018-09-04T14:04:07.514Z,29.10
2018-09-04T14:06:36.010Z,29.21
2018-09-04T14:09:05.424Z,29.44
2018-09-04T14:11:33.453Z,29.35
2018-09-04T14:14:01.755Z,29.22
2018-09-04T14:16:29.686Z,29.29
2018-09-04T14:18:57.701Z,29.63
2018-09-04T14:21:25.722Z,29.67
2018-09-04T14:23:54.113Z,29.31
2018-09-04T14:26:22.220Z,28.82
2018-09-04T14:29:06.422Z,28.72
2018-09-04T14:31:18.429Z,28.74
2018-09-04T14:33:53.282Z,28.87
2018-09-04T14:36:21.553Z,28.93
2018-09-04T14:38:49.524Z,28.96
2018-09-04T14:41:17.533Z,29.02
2018-09-04T14:43:45.556Z,29.13
2018-09-04T14:46:13.604Z,29.28
2018-09-04T14:48:41.645Z,29.33
2018-09-04T14:51:09.685Z,29.71
2018-09-04T14:53:37.687Z,29.91
2018-09-04T14:56:05.743Z,30.34
2018-09-04T14:58:33.787Z,30.84
2018-09-04T15:01:01.834Z,30.30
2018-09-04T15:03:29.887Z,30.37
2018-09-04T15:05:57.926Z,29.47
2018-09-04T15:08:25.941Z,29.40
2018-09-04T15:10:54.028Z,29.52
2018-09-04T15:13:22.173Z,29.34
2018-09-04T15:15:50.281Z,29.53
2018-09-04T15:18:19.128Z,29.69
2018-09-04T15:20:47.300Z,30.05
2018-09-04T15:23:15.456Z,30.18
2018-09-04T15:25:43.496Z,29.78
2018-09-04T15:28:11.466Z,29.51
2018-09-04T15:30:39.453Z,29.23
2018-09-04T15:33:07.460Z,28.71
2018-09-04T15:35:35.485Z,28.58
2018-09-04T15:38:03.504Z,28.39
2018-09-04T15:40:31.521Z,28.52
2018-09-04T15:42:59.545Z,28.46
2018-09-04T15:45:27.580Z,28.25
2018-09-04T15:47:55.673Z,28.34
2018-09-04T15:50:23.837Z,28.55
2018-09-04T15:52:51.936Z,28.56
2018-09-04T15:55:19.960Z,28.46
2018-09-04T15:57:47.960Z,28.34
2018-09-04T16:00:16.039Z,28.36
2018-09-04T16:02:44.093Z,28.33
2018-09-04T16:05:12.165Z,28.43
2018-09-04T16:07:40.209Z,28.15
2018-09-04T16:10:08.416Z,28.08
2018-09-04T16:12:36.497Z,28.10
2018-09-04T16:15:04.671Z,28.08
2018-09-04T16:17:32.837Z,28.03
2018-09-04T16:20:01.218Z,28.01
2018-09-04T16:22:29.504Z,27.97
2018-09-04T16:24:57.740Z,27.63
2018-09-04T16:27:25.797Z,27.62
2018-09-04T16:29:53.880Z,27.58
2018-09-04T16:32:21.925Z,27.60
2018-09-04T16:34:50.033Z,27.45
2018-09-04T16:37:18.010Z,27.40
2018-09-04T16:39:46.058Z,27.51
2018-09-04T16:42:14.085Z,27.60
2018-09-04T16:44:42.073Z,27.75
2018-09-04T16:47:10.094Z,27.63
2018-09-04T16:49:38.092Z,27.44
2018-09-04T16:52:06.569Z,27.24
2018-09-04T16:54:34.584Z,27.08
2018-09-04T16:57:02.589Z,26.92
2018-09-04T16:59:30.784Z,26.81
2018-09-04T17:01:58.792Z,26.89
2018-09-04T17:04:26.825Z,26.81
2018-09-04T17:06:54.846Z,26.66
2018-09-04T17:09:23.052Z,26.66
2018-09-04T17:11:51.248Z,26.43
2018-09-04T17:14:19.400Z,26.29
2018-09-04T17:16:47.430Z,26.26
2018-09-04T17:19:15.492Z,26.04
2018-09-04T17:21:43.541Z,26.02
2018-09-04T17:24:11.648Z,26.00
2018-09-04T17:26:39.696Z,26.02
2018-09-04T17:29:07.924Z,25.88
2018-09-04T17:31:36.017Z,25.87
2018-09-04T17:34:04.039Z,25.84
2018-09-04T17:36:32.159Z,25.92
2018-09-04T17:39:00.161Z,25.84
2018-09-04T17:41:28.600Z,25.75
2018-09-04T17:43:56.673Z,25.68
2018-09-04T17:46:24.717Z,25.74
2018-09-04T17:48:52.786Z,25.62
2018-09-04T17:51:20.810Z,25.46
2018-09-04T17:53:48.816Z,25.53
2018-09-04T17:56:16.873Z,25.41
2018-09-04T17:58:44.904Z,25.26
2018-09-04T18:01:12.952Z,25.05
2018-09-04T18:03:41.014Z,25.05
2018-09-04T18:06:09.070Z,24.98
2018-09-04T18:08:37.080Z,25.02
2018-09-04T18:11:05.229Z,24.91
2018-09-04T18:13:33.320Z,24.77
2018-09-04T18:16:01.330Z,24.80
2018-09-04T18:18:29.450Z,24.96
2018-09-04T18:20:57.479Z,24.84
2018-09-04T18:23:25.488Z,24.79
2018-09-04T18:25:53.501Z,24.78
2018-09-04T18:28:21.756Z,24.78
2018-09-04T18:30:50.734Z,24.75
2018-09-04T18:33:18.766Z,24.64
2018-09-04T18:35:46.781Z,24.46
2018-09-04T18:38:14.829Z,24.46
2018-09-04T18:40:42.865Z,24.15
2018-09-04T18:43:10.989Z,23.97
2018-09-04T18:45:50.320Z,23.86
2018-09-04T18:48:18.737Z,23.63
2018-09-04T18:50:46.840Z,23.37
2018-09-04T18:53:15.069Z,23.32
2018-09-04T18:55:43.144Z,22.97
2018-09-04T18:58:12.072Z,22.50
2018-09-04T19:00:40.550Z,22.25
2018-09-04T19:03:08.577Z,22.30
2018-09-04T19:05:36.716Z,22.25
2018-09-04T19:08:04.880Z,22.17
2018-09-04T19:10:33.243Z,22.05
2018-09-04T19:13:01.684Z,21.84
2018-09-04T19:15:30.731Z,21.87
2018-09-04T19:17:58.808Z,21.95
2018-09-04T19:20:26.822Z,21.90
2018-09-04T19:22:54.888Z,21.87
2018-09-04T19:25:23.278Z,22.16
2018-09-04T19:27:51.420Z,22.17
2018-09-04T19:30:19.525Z,22.12
2018-09-04T19:32:47.563Z,22.15
2018-09-04T19:35:15.568Z,22.23
2018-09-04T19:37:43.601Z,22.10
2018-09-04T19:40:11.745Z,21.94
2018-09-04T19:42:40.737Z,21.70
2018-09-04T19:45:09.137Z,21.65
2018-09-04T19:47:37.365Z,21.49
2018-09-04T19:50:06.803Z,21.49
2018-09-04T19:52:34.785Z,21.38
2018-09-04T19:55:02.893Z,21.25
2018-09-04T19:57:31.016Z,21.14
2018-09-04T19:59:59.101Z,21.05
2018-09-04T20:02:27.205Z,21.06
2018-09-04T20:04:55.245Z,21.12
2018-09-04T20:07:23.351Z,21.05
2018-09-04T20:09:51.350Z,20.83
2018-09-04T20:12:19.421Z,20.83
2018-09-04T20:14:47.453Z,20.77
2018-09-04T20:17:15.626Z,20.74
2018-09-04T20:19:43.969Z,20.71
2018-09-04T20:22:11.976Z,20.64
2018-09-04T20:24:40.129Z,20.67
2018-09-04T20:27:08.330Z,20.69
2018-09-04T20:29:36.431Z,20.74
2018-09-04T20:32:04.404Z,20.69
2018-09-04T20:34:32.430Z,20.49
2018-09-04T20:37:00.473Z,20.60
2018-09-04T20:39:28.651Z,20.46
2018-09-04T20:41:56.937Z,20.63
2018-09-04T20:44:24.975Z,20.59
2018-09-04T20:46:53.086Z,20.50
2018-09-04T20:49:21.112Z,20.41
2018-09-04T20:51:49.660Z,20.28
2018-09-04T20:54:17.838Z,20.29
2018-09-04T20:56:53.839Z,20.24
2018-09-04T20:59:33.382Z,20.14
2018-09-04T21:02:13.034Z,20.28
2018-09-04T21:04:52.393Z,20.07
2018-09-04T21:07:24.925Z,19.92
2018-09-04T21:09:58.392Z,19.92
2018-09-04T21:12:26.462Z,19.90
2018-09-04T21:14:54.547Z,19.89
2018-09-04T21:17:22.577Z,19.82
2018-09-04T21:19:50.600Z,19.75
2018-09-04T21:22:18.620Z,19.73
2018-09-04T21:24:46.918Z,19.85
2018-09-04T21:27:14.877Z,19.89
2018-09-04T21:29:43.013Z,19.84
2018-09-04T21:32:11.163Z,19.70
2018-09-04T21:34:39.328Z,19.55
2018-09-04T21:37:07.408Z,19.50
2018-09-04T21:39:35.447Z,19.59
2018-09-04T21:42:03.479Z,19.54
2018-09-04T21:44:31.546Z,19.42
2018-09-04T21:46:59.553Z,19.31
2018-09-04T21:49:27.573Z,19.35
2018-09-04T21:51:55.622Z,19.25
2018-09-04T21:54:23.630Z,19.18
2018-09-04T21:56:51.948Z,19.16
2018-09-04T21:59:19.913Z,19.12
2018-09-04T22:01:47.981Z,19.09
2018-09-04T22:04:16.057Z,19.03
2018-09-04T22:06:44.120Z,18.91
2018-09-04T22:09:12.250Z,18.89
2018-09-04T22:11:40.268Z,18.75
2018-09-04T22:14:08.331Z,18.76
2018-09-04T22:16:36.349Z,18.78
2018-09-04T22:19:04.684Z,18.63
2018-09-04T22:21:32.697Z,18.53
2018-09-04T22:24:00.804Z,18.42
2018-09-04T22:26:28.847Z,18.47
2018-09-04T22:28:56.844Z,18.48
2018-09-04T22:31:24.868Z,18.46
2018-09-04T22:33:52.900Z,18.48
2018-09-04T22:36:20.973Z,18.46
2018-09-04T22:38:49.050Z,18.48
2018-09-04T22:41:17.102Z,18.36
2018-09-04T22:43:45.143Z,18.30
2018-09-04T22:46:13.204Z,18.24
2018-09-04T22:48:41.230Z,18.19
2018-09-04T22:51:14.721Z,18.16
2018-09-04T22:53:42.723Z,18.18
2018-09-04T22:56:10.753Z,18.03
2018-09-04T22:58:38.776Z,18.08
2018-09-04T23:01:06.813Z,18.13
2018-09-04T23:03:34.845Z,18.05
2018-09-04T23:06:02.835Z,18.03
2018-09-04T23:08:30.902Z,17.98
2018-09-04T23:10:59.054Z,17.96
2018-09-04T23:13:27.066Z,17.86
2018-09-04T23:15:55.054Z,17.84
2018-09-04T23:18:23.081Z,17.85
2018-09-04T23:20:51.135Z,17.86
2018-09-04T23:23:19.128Z,17.75
2018-09-04T23:25:47.149Z,17.71
2018-09-04T23:28:15.164Z,17.70
2018-09-04T23:30:43.398Z,17.49
2018-09-04T23:33:11.422Z,17.44
2018-09-04T23:35:39.451Z,17.46
2018-09-04T23:38:07.456Z,17.29
2018-09-04T23:40:36.283Z,17.46
2018-09-04T23:43:04.502Z,17.43
2018-09-04T23:45:32.513Z,17.42
2018-09-04T23:48:00.548Z,17.39
2018-09-04T23:50:29.289Z,17.33
2018-09-04T23:52:57.313Z,17.49
2018-09-04T23:55:25.307Z,17.45
2018-09-04T23:57:53.424Z,17.34
